sensor_id;sensor_type;location;lat;lon;timestamp;temperature;humidity
49821;DHT22;36893;52.520;13.450;2023-07-24T00:06:02;27.60;55.70
49821;DHT22;36893;52.520;13.450;2023-07-24T00:16:07;27.70;55.80
49821;DHT22;36893;52.520;13.450;2023-07-24T00:26:08;27.70;55.90
49821;DHT22;36893;52.520;13.450;2023-07-24T00:36:09;27.60;55.80
49821;DHT22;36893;52.520;13.450;2023-07-24T00:46:11;27.60;55.80
49821;DHT22;36893;52.520;13.450;2023-07-24T00:56:11;27.60;55.80
49821;DHT22;36893;52.520;13.450;2023-07-24T01:06:12;27.60;55.80
49821;DHT22;36893;52.520;13.450;2023-07-24T01:16:14;27.70;55.90
49821;DHT22;36893;52.520;13.450;2023-07-24T01:26:21;27.70;56.00
49821;DHT22;36893;52.520;13.450;2023-07-24T01:36:24;27.60;55.90
49821;DHT22;36893;52.520;13.450;2023-07-24T01:46:24;27.60;56.00
49821;DHT22;36893;52.520;13.450;2023-07-24T01:56:25;27.60;56.00
49821;DHT22;36893;52.520;13.450;2023-07-24T02:06:26;27.60;56.00
49821;DHT22;36893;52.520;13.450;2023-07-24T02:16:26;27.60;56.00
49821;DHT22;36893;52.520;13.450;2023-07-24T02:26:27;27.60;56.00
49821;DHT22;36893;52.520;13.450;2023-07-24T02:36:27;27.60;56.00
49821;DHT22;36893;52.520;13.450;2023-07-24T02:46:28;27.60;56.00
49821;DHT22;36893;52.520;13.450;2023-07-24T02:56:31;27.60;56.10
49821;DHT22;36893;52.520;13.450;2023-07-24T03:06:32;27.60;56.10
49821;DHT22;36893;52.520;13.450;2023-07-24T03:16:32;27.60;56.10
49821;DHT22;36893;52.520;13.450;2023-07-24T03:26:33;27.60;56.10
49821;DHT22;36893;52.520;13.450;2023-07-24T03:36:33;27.60;56.10
49821;DHT22;36893;52.520;13.450;2023-07-24T03:46:35;27.60;56.10
49821;DHT22;36893;52.520;13.450;2023-07-24T03:56:36;27.60;56.10
49821;DHT22;36893;52.520;13.450;2023-07-24T04:06:37;27.60;56.10
49821;DHT22;36893;52.520;13.450;2023-07-24T04:16:37;27.60;56.20
49821;DHT22;36893;52.520;13.450;2023-07-24T04:26:38;27.60;56.20
49821;DHT22;36893;52.520;13.450;2023-07-24T04:36:39;27.60;56.20
49821;DHT22;36893;52.520;13.450;2023-07-24T04:46:40;27.60;56.30
49821;DHT22;36893;52.520;13.450;2023-07-24T04:56:41;27.60;56.30
49821;DHT22;36893;52.520;13.450;2023-07-24T05:06:41;27.60;56.30
49821;DHT22;36893;52.520;13.450;2023-07-24T05:16:42;27.60;56.40
49821;DHT22;36893;52.520;13.450;2023-07-24T05:26:43;27.60;57.00
49821;DHT22;36893;52.520;13.450;2023-07-24T05:36:43;27.60;56.40
49821;DHT22;36893;52.520;13.450;2023-07-24T05:46:44;27.70;56.50
49821;DHT22;36893;52.520;13.450;2023-07-24T05:56:44;27.60;56.40
49821;DHT22;36893;52.520;13.450;2023-07-24T06:06:45;27.70;56.50
49821;DHT22;36893;52.520;13.450;2023-07-24T06:16:46;27.70;56.50
49821;DHT22;36893;52.520;13.450;2023-07-24T06:26:46;27.70;56.60
49821;DHT22;36893;52.520;13.450;2023-07-24T06:36:47;27.70;56.60
49821;DHT22;36893;52.520;13.450;2023-07-24T06:46:47;27.70;57.20
49821;DHT22;36893;52.520;13.450;2023-07-24T06:56:48;27.70;56.60
49821;DHT22;36893;52.520;13.450;2023-07-24T07:06:49;27.70;56.60
49821;DHT22;36893;52.520;13.450;2023-07-24T07:16:49;27.70;56.70
49821;DHT22;36893;52.520;13.450;2023-07-24T07:26:50;27.70;56.70
49821;DHT22;36893;52.520;13.450;2023-07-24T07:36:51;27.70;56.70
49821;DHT22;36893;52.520;13.450;2023-07-24T07:46:51;27.70;56.60
49821;DHT22;36893;52.520;13.450;2023-07-24T07:56:52;27.70;56.80
49821;DHT22;36893;52.520;13.450;2023-07-24T08:06:53;27.80;56.70
49821;DHT22;36893;52.520;13.450;2023-07-24T08:16:53;27.80;56.70
49821;DHT22;36893;52.520;13.450;2023-07-24T08:26:54;27.80;56.70
49821;DHT22;36893;52.520;13.450;2023-07-24T08:36:55;27.80;56.80
49821;DHT22;36893;52.520;13.450;2023-07-24T08:46:55;27.80;56.70
49821;DHT22;36893;52.520;13.450;2023-07-24T08:56:56;27.80;56.80
49821;DHT22;36893;52.520;13.450;2023-07-24T09:06:57;27.80;56.80
49821;DHT22;36893;52.520;13.450;2023-07-24T09:17:06;27.80;56.80
49821;DHT22;36893;52.520;13.450;2023-07-24T09:27:10;27.90;56.80
49821;DHT22;36893;52.520;13.450;2023-07-24T09:37:32;27.90;56.80
49821;DHT22;36893;52.520;13.450;2023-07-24T09:47:34;27.90;56.90
49821;DHT22;36893;52.520;13.450;2023-07-24T09:57:35;27.90;56.80
49821;DHT22;36893;52.520;13.450;2023-07-24T10:07:36;28.00;56.90
49821;DHT22;36893;52.520;13.450;2023-07-24T10:17:39;28.00;56.90
49821;DHT22;36893;52.520;13.450;2023-07-24T10:27:44;28.10;56.90
49821;DHT22;36893;52.520;13.450;2023-07-24T10:37:46;28.10;56.90
49821;DHT22;36893;52.520;13.450;2023-07-24T10:47:47;28.10;56.90
49821;DHT22;36893;52.520;13.450;2023-07-24T10:57:47;28.10;56.90
49821;DHT22;36893;52.520;13.450;2023-07-24T11:07:48;28.10;56.90
49821;DHT22;36893;52.520;13.450;2023-07-24T11:17:49;28.10;56.90
49821;DHT22;36893;52.520;13.450;2023-07-24T11:27:49;28.10;56.90
49821;DHT22;36893;52.520;13.450;2023-07-24T11:37:50;28.10;56.90
49821;DHT22;36893;52.520;13.450;2023-07-24T11:47:51;28.10;56.90
49821;DHT22;36893;52.520;13.450;2023-07-24T11:57:58;28.10;57.00
49821;DHT22;36893;52.520;13.450;2023-07-24T12:07:59;28.10;57.00
49821;DHT22;36893;52.520;13.450;2023-07-24T12:18:00;28.20;57.00
49821;DHT22;36893;52.520;13.450;2023-07-24T12:28:01;28.20;57.00
49821;DHT22;36893;52.520;13.450;2023-07-24T12:38:02;28.10;57.00
49821;DHT22;36893;52.520;13.450;2023-07-24T12:48:02;28.20;57.00
49821;DHT22;36893;52.520;13.450;2023-07-24T12:58:03;28.20;57.60
49821;DHT22;36893;52.520;13.450;2023-07-24T13:08:04;28.20;57.30
49821;DHT22;36893;52.520;13.450;2023-07-24T13:18:05;28.20;57.00
49821;DHT22;36893;52.520;13.450;2023-07-24T13:28:05;28.20;57.10
49821;DHT22;36893;52.520;13.450;2023-07-24T13:38:06;28.20;57.00
49821;DHT22;36893;52.520;13.450;2023-07-24T13:48:08;28.20;57.10
49821;DHT22;36893;52.520;13.450;2023-07-24T13:58:09;28.20;57.00
49821;DHT22;36893;52.520;13.450;2023-07-24T14:08:09;28.20;57.10
49821;DHT22;36893;52.520;13.450;2023-07-24T14:18:11;28.20;57.10
49821;DHT22;36893;52.520;13.450;2023-07-24T14:28:12;28.20;57.10
49821;DHT22;36893;52.520;13.450;2023-07-24T14:38:12;28.20;57.20
49821;DHT22;36893;52.520;13.450;2023-07-24T14:48:13;28.20;57.20
49821;DHT22;36893;52.520;13.450;2023-07-24T14:58:14;28.20;57.20
49821;DHT22;36893;52.520;13.450;2023-07-24T15:08:15;28.20;57.20
49821;DHT22;36893;52.520;13.450;2023-07-24T15:18:17;28.20;57.20
49821;DHT22;36893;52.520;13.450;2023-07-24T15:28:18;28.20;57.30
49821;DHT22;36893;52.520;13.450;2023-07-24T15:38:19;28.20;57.30
49821;DHT22;36893;52.520;13.450;2023-07-24T15:48:19;28.30;57.40
49821;DHT22;36893;52.520;13.450;2023-07-24T15:58:20;28.20;57.30
49821;DHT22;36893;52.520;13.450;2023-07-24T16:08:20;28.30;57.40
49821;DHT22;36893;52.520;13.450;2023-07-24T16:18:22;28.20;57.30
49821;DHT22;36893;52.520;13.450;2023-07-24T16:28:23;28.30;57.40
49821;DHT22;36893;52.520;13.450;2023-07-24T16:38:24;28.30;57.30
49821;DHT22;36893;52.520;13.450;2023-07-24T16:48:24;28.20;57.40
49821;DHT22;36893;52.520;13.450;2023-07-24T16:58:25;28.30;57.40
49821;DHT22;36893;52.520;13.450;2023-07-24T17:08:26;28.30;57.50
49821;DHT22;36893;52.520;13.450;2023-07-24T17:18:26;28.30;57.50
49821;DHT22;36893;52.520;13.450;2023-07-24T17:28:27;28.30;57.50
49821;DHT22;36893;52.520;13.450;2023-07-24T17:38:28;28.30;57.60
49821;DHT22;36893;52.520;13.450;2023-07-24T17:48:30;28.30;57.60
49821;DHT22;36893;52.520;13.450;2023-07-24T17:58:31;28.30;57.60
49821;DHT22;36893;52.520;13.450;2023-07-24T18:08:31;28.30;57.60
49821;DHT22;36893;52.520;13.450;2023-07-24T18:18:32;28.30;57.60
49821;DHT22;36893;52.520;13.450;2023-07-24T18:28:33;28.30;57.60
49821;DHT22;36893;52.520;13.450;2023-07-24T18:38:33;28.30;57.60
49821;DHT22;36893;52.520;13.450;2023-07-24T18:48:36;28.30;57.60
49821;DHT22;36893;52.520;13.450;2023-07-24T18:58:36;28.30;57.60
49821;DHT22;36893;52.520;13.450;2023-07-24T19:08:37;28.30;57.60
49821;DHT22;36893;52.520;13.450;2023-07-24T19:18:37;28.30;57.60
49821;DHT22;36893;52.520;13.450;2023-07-24T19:28:40;28.30;57.70
49821;DHT22;36893;52.520;13.450;2023-07-24T19:38:40;28.30;57.70
49821;DHT22;36893;52.520;13.450;2023-07-24T19:48:41;28.30;57.70
49821;DHT22;36893;52.520;13.450;2023-07-24T19:58:42;28.30;57.80
49821;DHT22;36893;52.520;13.450;2023-07-24T20:08:42;28.30;57.80
49821;DHT22;36893;52.520;13.450;2023-07-24T20:18:43;28.30;57.90
49821;DHT22;36893;52.520;13.450;2023-07-24T20:28:44;28.30;57.90
49821;DHT22;36893;52.520;13.450;2023-07-24T20:38:44;28.30;57.90
49821;DHT22;36893;52.520;13.450;2023-07-24T20:48:45;28.30;57.90
49821;DHT22;36893;52.520;13.450;2023-07-24T20:58:46;28.20;58.00
49821;DHT22;36893;52.520;13.450;2023-07-24T21:08:46;28.20;58.00
49821;DHT22;36893;52.520;13.450;2023-07-24T21:18:47;28.20;58.00
49821;DHT22;36893;52.520;13.450;2023-07-24T21:28:48;28.20;58.10
49821;DHT22;36893;52.520;13.450;2023-07-24T21:38:48;28.20;58.10
49821;DHT22;36893;52.520;13.450;2023-07-24T21:48:49;28.20;58.10
49821;DHT22;36893;52.520;13.450;2023-07-24T21:58:50;28.20;58.20
49821;DHT22;36893;52.520;13.450;2023-07-24T22:08:50;28.20;58.20
49821;DHT22;36893;52.520;13.450;2023-07-24T22:18:51;28.20;58.30
49821;DHT22;36893;52.520;13.450;2023-07-24T22:28:51;28.20;58.30
49821;DHT22;36893;52.520;13.450;2023-07-24T22:38:52;28.20;58.30
49821;DHT22;36893;52.520;13.450;2023-07-24T22:48:54;28.20;58.40
49821;DHT22;36893;52.520;13.450;2023-07-24T23:09:04;28.20;58.40
49821;DHT22;36893;52.520;13.450;2023-07-24T23:19:05;28.20;58.40
49821;DHT22;36893;52.520;13.450;2023-07-24T23:29:05;28.20;58.50
49821;DHT22;36893;52.520;13.450;2023-07-24T23:39:06;28.20;58.50
49821;DHT22;36893;52.520;13.450;2023-07-24T23:49:06;28.20;58.50
49821;DHT22;36893;52.520;13.450;2023-07-24T23:59:07;28.20;58.60
